sensor_id;sensor_type;location;lat;lon;timestamp;pressure;altitude;pressure_sealevel;temperature;humidity
15477;BME280;7840;42.702;23.296;2022-11-15T00:01:31;95645.09;;;3.41;100.00
15477;BME280;7840;42.702;23.296;2022-11-15T00:04:12;95652.94;;;3.19;100.00
15477;BME280;7840;42.702;23.296;2022-11-15T00:06:40;95651.31;;;3.18;100.00
15477;BME280;7840;42.702;23.296;2022-11-15T00:09:09;95651.81;;;3.28;100.00
15477;BME280;7840;42.702;23.296;2022-11-15T00:11:37;95647.56;;;3.27;100.00
15477;BME280;7840;42.702;23.296;2022-11-15T00:14:06;95649.31;;;3.42;100.00
15477;BME280;7840;42.702;23.296;2022-11-15T00:16:34;95651.94;;;3.42;100.00
15477;BME280;7840;42.702;23.296;2022-11-15T00:19:02;95647.22;;;3.52;100.00
15477;BME280;7840;42.702;23.296;2022-11-15T00:21:29;95639.53;;;3.50;100.00
15477;BME280;7840;42.702;23.296;2022-11-15T00:23:58;95645.59;;;3.51;100.00
15477;BME280;7840;42.702;23.296;2022-11-15T00:26:25;95641.56;;;3.55;100.00
15477;BME280;7840;42.702;23.296;2022-11-15T00:28:53;95642.44;;;3.62;100.00
15477;BME280;7840;42.702;23.296;2022-11-15T00:31:22;95639.81;;;3.62;100.00
15477;BME280;7840;42.702;23.296;2022-11-15T00:33:49;95639.47;;;3.65;100.00
15477;BME280;7840;42.702;23.296;2022-11-15T00:36:33;95626.97;;;3.67;100.00
15477;BME280;7840;42.702;23.296;2022-11-15T00:39:14;95635.59;;;3.61;100.00
15477;BME280;7840;42.702;23.296;2022-11-15T00:41:50;95636.22;;;3.42;100.00
15477;BME280;7840;42.702;23.296;2022-11-15T00:44:17;95632.88;;;3.26;100.00
15477;BME280;7840;42.702;23.296;2022-11-15T00:46:50;95631.84;;;3.06;100.00
15477;BME280;7840;42.702;23.296;2022-11-15T00:49:18;95636.94;;;2.93;100.00
15477;BME280;7840;42.702;23.296;2022-11-15T00:51:45;95635.34;;;2.92;100.00
15477;BME280;7840;42.702;23.296;2022-11-15T00:54:27;95627.38;;;3.00;100.00
15477;BME280;7840;42.702;23.296;2022-11-15T00:56:54;95621.38;;;3.06;100.00
15477;BME280;7840;42.702;23.296;2022-11-15T00:59:25;95629.59;;;2.82;100.00
15477;BME280;7840;42.702;23.296;2022-11-15T01:01:55;95627.22;;;2.87;100.00
15477;BME280;7840;42.702;23.296;2022-11-15T01:04:24;95624.88;;;2.92;100.00
15477;BME280;7840;42.702;23.296;2022-11-15T01:07:05;95623.25;;;2.91;100.00
15477;BME280;7840;42.702;23.296;2022-11-15T01:09:36;95615.66;;;2.96;100.00
15477;BME280;7840;42.702;23.296;2022-11-15T01:12:06;95606.44;;;3.00;100.00
15477;BME280;7840;42.702;23.296;2022-11-15T01:14:34;95614.81;;;3.10;100.00
15477;BME280;7840;42.702;23.296;2022-11-15T01:17:04;95619.03;;;3.11;100.00
15477;BME280;7840;42.702;23.296;2022-11-15T01:19:35;95614.97;;;3.09;100.00
15477;BME280;7840;42.702;23.296;2022-11-15T01:22:06;95621.03;;;3.09;100.00
15477;BME280;7840;42.702;23.296;2022-11-15T01:24:34;95620.75;;;2.83;100.00
15477;BME280;7840;42.702;23.296;2022-11-15T01:27:01;95622.84;;;2.72;100.00
15477;BME280;7840;42.702;23.296;2022-11-15T01:29:29;95615.00;;;2.72;100.00
15477;BME280;7840;42.702;23.296;2022-11-15T01:31:57;95609.81;;;2.43;100.00
15477;BME280;7840;42.702;23.296;2022-11-15T01:34:26;95610.47;;;2.30;100.00
15477;BME280;7840;42.702;23.296;2022-11-15T01:36:56;95612.53;;;2.35;100.00
15477;BME280;7840;42.702;23.296;2022-11-15T01:39:23;95614.59;;;2.39;100.00
15477;BME280;7840;42.702;23.296;2022-11-15T01:41:51;95607.16;;;2.22;100.00
15477;BME280;7840;42.702;23.296;2022-11-15T01:44:43;95596.78;;;2.28;100.00
15477;BME280;7840;42.702;23.296;2022-11-15T01:47:15;95597.44;;;2.52;100.00
15477;BME280;7840;42.702;23.296;2022-11-15T01:49:50;95593.91;;;2.59;100.00
15477;BME280;7840;42.702;23.296;2022-11-15T01:52:26;95598.78;;;2.62;100.00
15477;BME280;7840;42.702;23.296;2022-11-15T01:55:00;95591.84;;;2.69;100.00
15477;BME280;7840;42.702;23.296;2022-11-15T02:00:14;95590.84;;;2.70;100.00
15477;BME280;7840;42.702;23.296;2022-11-15T02:02:41;95589.41;;;2.68;100.00
15477;BME280;7840;42.702;23.296;2022-11-15T02:05:17;95590.84;;;2.70;100.00
15477;BME280;7840;42.702;23.296;2022-11-15T02:07:45;95590.97;;;2.84;100.00
15477;BME280;7840;42.702;23.296;2022-11-15T02:10:18;95588.03;;;2.93;100.00
15477;BME280;7840;42.702;23.296;2022-11-15T02:12:46;95594.94;;;2.80;100.00
15477;BME280;7840;42.702;23.296;2022-11-15T02:15:14;95585.34;;;2.87;100.00
15477;BME280;7840;42.702;23.296;2022-11-15T02:17:55;95591.13;;;2.97;100.00
15477;BME280;7840;42.702;23.296;2022-11-15T02:21:03;95588.50;;;2.97;100.00
15477;BME280;7840;42.702;23.296;2022-11-15T02:24:16;95596.22;;;2.84;100.00
15477;BME280;7840;42.702;23.296;2022-11-15T02:30:20;95593.72;;;2.76;100.00
15477;BME280;7840;42.702;23.296;2022-11-15T02:32:52;95594.94;;;2.80;100.00
15477;BME280;7840;42.702;23.296;2022-11-15T02:35:29;95596.22;;;2.84;100.00
15477;BME280;7840;42.702;23.296;2022-11-15T02:38:07;95582.50;;;2.82;100.00
15477;BME280;7840;42.702;23.296;2022-11-15T02:40:47;95587.38;;;2.85;100.00
15477;BME280;7840;42.702;23.296;2022-11-15T02:43:28;95586.09;;;2.81;100.00
15477;BME280;7840;42.702;23.296;2022-11-15T02:46:19;95586.63;;;2.91;100.00
15477;BME280;7840;42.702;23.296;2022-11-15T02:49:14;95592.72;;;2.98;100.00
15477;BME280;7840;42.702;23.296;2022-11-15T02:51:44;95587.50;;;2.98;100.00
15477;BME280;7840;42.702;23.296;2022-11-15T02:54:14;95591.13;;;2.97;100.00
15477;BME280;7840;42.702;23.296;2022-11-15T02:56:43;95590.47;;;2.95;100.00
15477;BME280;7840;42.702;23.296;2022-11-15T03:02:24;95595.97;;;3.00;100.00
15477;BME280;7840;42.702;23.296;2022-11-15T03:04:58;95604.50;;;3.09;100.00
15477;BME280;7840;42.702;23.296;2022-11-15T03:07:32;95600.19;;;3.01;100.00
15477;BME280;7840;42.702;23.296;2022-11-15T03:10:06;95598.22;;;3.03;100.00
15477;BME280;7840;42.702;23.296;2022-11-15T03:12:43;95591.25;;;3.10;100.00
15477;BME280;7840;42.702;23.296;2022-11-15T03:15:20;95588.31;;;3.20;100.00
15477;BME280;7840;42.702;23.296;2022-11-15T03:17:55;95584.13;;;3.25;100.00
15477;BME280;7840;42.702;23.296;2022-11-15T03:20:26;95574.91;;;3.29;100.00
15477;BME280;7840;42.702;23.296;2022-11-15T03:22:56;95580.63;;;3.40;100.00
15477;BME280;7840;42.702;23.296;2022-11-15T03:25:41;95575.63;;;3.45;100.00
15477;BME280;7840;42.702;23.296;2022-11-15T03:28:18;95580.34;;;3.56;100.00
15477;BME280;7840;42.702;23.296;2022-11-15T03:30:48;95577.97;;;3.61;100.00
15477;BME280;7840;42.702;23.296;2022-11-15T03:33:20;95574.34;;;3.62;100.00
15477;BME280;7840;42.702;23.296;2022-11-15T03:35:49;95569.94;;;3.69;100.00
15477;BME280;7840;42.702;23.296;2022-11-15T03:38:23;95568.59;;;3.73;100.00
15477;BME280;7840;42.702;23.296;2022-11-15T03:40:57;95564.09;;;3.67;100.00
15477;BME280;7840;42.702;23.296;2022-11-15T03:43:33;95562.72;;;3.71;100.00
15477;BME280;7840;42.702;23.296;2022-11-15T03:46:24;95562.72;;;3.71;100.00
15477;BME280;7840;42.702;23.296;2022-11-15T03:49:10;95553.53;;;3.26;100.00
15477;BME280;7840;42.702;23.296;2022-11-15T03:51:41;95550.13;;;3.04;100.00
15477;BME280;7840;42.702;23.296;2022-11-15T03:54:10;95552.31;;;3.28;100.00
15477;BME280;7840;42.702;23.296;2022-11-15T03:56:39;95554.91;;;3.50;100.00
15477;BME280;7840;42.702;23.296;2022-11-15T03:59:06;95548.09;;;3.55;100.00
15477;BME280;7840;42.702;23.296;2022-11-15T04:01:34;95541.09;;;3.63;100.00
15477;BME280;7840;42.702;23.296;2022-11-15T04:04:01;95548.22;;;3.75;100.00
15477;BME280;7840;42.702;23.296;2022-11-15T04:06:30;95544.84;;;3.81;100.00
15477;BME280;7840;42.702;23.296;2022-11-15T04:08:58;95554.31;;;3.82;100.00
15477;BME280;7840;42.702;23.296;2022-11-15T04:11:25;95549.03;;;3.76;100.00
15477;BME280;7840;42.702;23.296;2022-11-15T04:13:53;95539.81;;;3.80;100.00
15477;BME280;7840;42.702;23.296;2022-11-15T04:16:20;95536.63;;;3.84;100.00
15477;BME280;7840;42.702;23.296;2022-11-15T04:18:48;95545.69;;;3.89;100.00
15477;BME280;7840;42.702;23.296;2022-11-15T04:21:37;95542.47;;;3.87;100.00
15477;BME280;7840;42.702;23.296;2022-11-15T04:24:23;95544.34;;;3.37;100.00
15477;BME280;7840;42.702;23.296;2022-11-15T04:27:07;95538.34;;;3.43;100.00
15477;BME280;7840;42.702;23.296;2022-11-15T04:29:41;95534.53;;;3.17;100.00
15477;BME280;7840;42.702;23.296;2022-11-15T04:32:12;95534.13;;;3.20;100.00
15477;BME280;7840;42.702;23.296;2022-11-15T04:34:40;95536.41;;;3.02;100.00
15477;BME280;7840;42.702;23.296;2022-11-15T04:37:10;95531.88;;;2.89;100.00
15477;BME280;7840;42.702;23.296;2022-11-15T04:39:40;95529.53;;;3.01;100.00
15477;BME280;7840;42.702;23.296;2022-11-15T04:42:08;95520.91;;;3.28;100.00
15477;BME280;7840;42.702;23.296;2022-11-15T04:44:36;95526.63;;;3.39;100.00
15477;BME280;7840;42.702;23.296;2022-11-15T04:47:05;95525.97;;;3.58;100.00
15477;BME280;7840;42.702;23.296;2022-11-15T04:49:33;95527.75;;;3.23;100.00
15477;BME280;7840;42.702;23.296;2022-11-15T04:52:01;95530.78;;;3.05;100.00
15477;BME280;7840;42.702;23.296;2022-11-15T04:54:30;95528.72;;;3.00;100.00
15477;BME280;7840;42.702;23.296;2022-11-15T04:56:58;95531.28;;;3.15;100.00
15477;BME280;7840;42.702;23.296;2022-11-15T04:59:25;95524.88;;;3.46;100.00
15477;BME280;7840;42.702;23.296;2022-11-15T05:01:53;95528.81;;;3.63;100.00
15477;BME280;7840;42.702;23.296;2022-11-15T05:04:20;95533.63;;;3.60;100.00
15477;BME280;7840;42.702;23.296;2022-11-15T05:06:54;95533.78;;;3.23;100.00
15477;BME280;7840;42.702;23.296;2022-11-15T05:09:21;95534.22;;;3.06;100.00
15477;BME280;7840;42.702;23.296;2022-11-15T05:11:53;95528.72;;;3.00;100.00
15477;BME280;7840;42.702;23.296;2022-11-15T05:14:24;95534.84;;;2.86;100.00
15477;BME280;7840;42.702;23.296;2022-11-15T05:16:51;95526.13;;;3.00;100.00
15477;BME280;7840;42.702;23.296;2022-11-15T05:19:19;95525.19;;;3.08;100.00
15477;BME280;7840;42.702;23.296;2022-11-15T05:22:04;95524.41;;;3.14;100.00
15477;BME280;7840;42.702;23.296;2022-11-15T05:24:33;95522.41;;;3.10;100.00
15477;BME280;7840;42.702;23.296;2022-11-15T05:27:02;95519.19;;;3.14;100.00
15477;BME280;7840;42.702;23.296;2022-11-15T05:29:29;95513.38;;;2.91;100.00
15477;BME280;7840;42.702;23.296;2022-11-15T05:31:57;95509.44;;;2.80;100.00
15477;BME280;7840;42.702;23.296;2022-11-15T05:34:25;95516.47;;;2.80;100.00
15477;BME280;7840;42.702;23.296;2022-11-15T05:36:52;95508.00;;;2.78;100.00
15477;BME280;7840;42.702;23.296;2022-11-15T05:39:35;95511.25;;;2.80;100.00
15477;BME280;7840;42.702;23.296;2022-11-15T05:42:07;95507.41;;;2.76;100.00
15477;BME280;7840;42.702;23.296;2022-11-15T05:44:55;95510.75;;;2.69;100.00
15477;BME280;7840;42.702;23.296;2022-11-15T05:47:27;95512.38;;;2.70;100.00
15477;BME280;7840;42.702;23.296;2022-11-15T05:49:57;95509.19;;;2.75;100.00
15477;BME280;7840;42.702;23.296;2022-11-15T05:52:28;95507.59;;;2.95;100.00
15477;BME280;7840;42.702;23.296;2022-11-15T06:02:40;95515.00;;;2.70;100.00
15477;BME280;7840;42.702;23.296;2022-11-15T06:05:10;95516.84;;;2.77;100.00
15477;BME280;7840;42.702;23.296;2022-11-15T06:07:37;95516.34;;;2.66;100.00
15477;BME280;7840;42.702;23.296;2022-11-15T06:10:13;95520.69;;;2.81;100.00
15477;BME280;7840;42.702;23.296;2022-11-15T06:12:40;95518.84;;;2.96;100.00
15477;BME280;7840;42.702;23.296;2022-11-15T06:15:13;95517.69;;;3.26;100.00
15477;BME280;7840;42.702;23.296;2022-11-15T06:17:42;95515.22;;;2.97;100.00
15477;BME280;7840;42.702;23.296;2022-11-15T06:20:26;95515.38;;;2.89;100.00
15477;BME280;7840;42.702;23.296;2022-11-15T06:23:08;95510.88;;;3.04;100.00
15477;BME280;7840;42.702;23.296;2022-11-15T06:25:42;95520.66;;;2.95;100.00
15477;BME280;7840;42.702;23.296;2022-11-15T06:28:30;95510.63;;;2.99;100.00
15477;BME280;7840;42.702;23.296;2022-11-15T06:31:03;95512.78;;;3.17;100.00
15477;BME280;7840;42.702;23.296;2022-11-15T06:33:32;95498.53;;;3.54;100.00
15477;BME280;7840;42.702;23.296;2022-11-15T06:36:01;95499.44;;;3.68;100.00
15477;BME280;7840;42.702;23.296;2022-11-15T06:38:28;95509.53;;;3.77;100.00
15477;BME280;7840;42.702;23.296;2022-11-15T06:41:02;95506.81;;;3.92;100.00
15477;BME280;7840;42.702;23.296;2022-11-15T06:43:30;95511.06;;;3.59;100.00
15477;BME280;7840;42.702;23.296;2022-11-15T06:45:58;95507.41;;;3.53;100.00
15477;BME280;7840;42.702;23.296;2022-11-15T06:48:26;95509.41;;;3.51;100.00
15477;BME280;7840;42.702;23.296;2022-11-15T06:50:56;95499.47;;;3.74;100.00
15477;BME280;7840;42.702;23.296;2022-11-15T06:53:24;95504.25;;;3.64;100.00
15477;BME280;7840;42.702;23.296;2022-11-15T06:55:53;95505.78;;;3.52;100.00
15477;BME280;7840;42.702;23.296;2022-11-15T06:58:21;95509.22;;;3.52;100.00
15477;BME280;7840;42.702;23.296;2022-11-15T07:00:50;95515.50;;;3.58;100.00
15477;BME280;7840;42.702;23.296;2022-11-15T07:03:18;95507.94;;;3.76;100.00
15477;BME280;7840;42.702;23.296;2022-11-15T07:05:51;95506.88;;;4.05;100.00
15477;BME280;7840;42.702;23.296;2022-11-15T07:08:22;95516.16;;;4.08;100.00
15477;BME280;7840;42.702;23.296;2022-11-15T07:10:50;95511.34;;;4.18;100.00
15477;BME280;7840;42.702;23.296;2022-11-15T07:13:18;95496.50;;;4.38;100.00
15477;BME280;7840;42.702;23.296;2022-11-15T07:15:45;95497.78;;;4.56;100.00
15477;BME280;7840;42.702;23.296;2022-11-15T07:18:13;95505.44;;;4.64;100.00
15477;BME280;7840;42.702;23.296;2022-11-15T07:21:12;95502.25;;;4.75;100.00
15477;BME280;7840;42.702;23.296;2022-11-15T07:23:50;95515.16;;;4.70;100.00
15477;BME280;7840;42.702;23.296;2022-11-15T07:26:31;95516.41;;;4.81;100.00
15477;BME280;7840;42.702;23.296;2022-11-15T07:29:10;95530.50;;;4.80;100.00
15477;BME280;7840;42.702;23.296;2022-11-15T07:31:39;95529.72;;;4.86;100.00
15477;BME280;7840;42.702;23.296;2022-11-15T07:34:07;95532.97;;;4.94;100.00
15477;BME280;7840;42.702;23.296;2022-11-15T07:36:36;95528.94;;;4.99;100.00
15477;BME280;7840;42.702;23.296;2022-11-15T07:39:07;95528.13;;;5.05;100.00
15477;BME280;7840;42.702;23.296;2022-11-15T07:41:35;95528.94;;;5.12;100.00
15477;BME280;7840;42.702;23.296;2022-11-15T07:44:03;95529.88;;;4.64;100.00
15477;BME280;7840;42.702;23.296;2022-11-15T07:46:30;95528.72;;;4.93;100.00
15477;BME280;7840;42.702;23.296;2022-11-15T07:48:58;95530.44;;;4.47;100.00
15477;BME280;7840;42.702;23.296;2022-11-15T07:51:28;95530.78;;;4.30;100.00
15477;BME280;7840;42.702;23.296;2022-11-15T07:53:58;95535.13;;;4.10;100.00
15477;BME280;7840;42.702;23.296;2022-11-15T07:56:27;95529.03;;;4.03;100.00
15477;BME280;7840;42.702;23.296;2022-11-15T07:59:07;95525.16;;;4.33;100.00
15477;BME280;7840;42.702;23.296;2022-11-15T08:01:35;95521.97;;;4.58;100.00
15477;BME280;7840;42.702;23.296;2022-11-15T08:04:03;95522.03;;;4.71;100.00
15477;BME280;7840;42.702;23.296;2022-11-15T08:06:30;95521.84;;;4.92;100.00
15477;BME280;7840;42.702;23.296;2022-11-15T08:09:00;95525.69;;;4.83;100.00
15477;BME280;7840;42.702;23.296;2022-11-15T08:11:29;95523.25;;;4.75;100.00
15477;BME280;7840;42.702;23.296;2022-11-15T08:14:10;95522.41;;;4.55;100.00
15477;BME280;7840;42.702;23.296;2022-11-15T08:16:48;95515.09;;;4.44;100.00
15477;BME280;7840;42.702;23.296;2022-11-15T08:19:21;95514.34;;;4.70;100.00
15477;BME280;7840;42.702;23.296;2022-11-15T08:21:53;95512.00;;;5.01;100.00
15477;BME280;7840;42.702;23.296;2022-11-15T08:24:34;95516.97;;;4.63;100.00
15477;BME280;7840;42.702;23.296;2022-11-15T08:27:23;95511.75;;;4.76;100.00
15477;BME280;7840;42.702;23.296;2022-11-15T08:29:51;95514.38;;;4.76;100.00
15477;BME280;7840;42.702;23.296;2022-11-15T08:32:24;95510.31;;;4.67;100.00
15477;BME280;7840;42.702;23.296;2022-11-15T08:34:51;95507.91;;;4.79;100.00
15477;BME280;7840;42.702;23.296;2022-11-15T08:37:19;95505.47;;;4.77;100.00
15477;BME280;7840;42.702;23.296;2022-11-15T08:39:46;95504.28;;;4.86;100.00
15477;BME280;7840;42.702;23.296;2022-11-15T08:42:19;95504.28;;;5.00;100.00
15477;BME280;7840;42.702;23.296;2022-11-15T08:44:47;95501.28;;;5.16;100.00
15477;BME280;7840;42.702;23.296;2022-11-15T08:47:28;95505.09;;;5.13;100.00
15477;BME280;7840;42.702;23.296;2022-11-15T08:52:41;95498.66;;;5.29;100.00
15477;BME280;7840;42.702;23.296;2022-11-15T08:55:09;95499.03;;;5.53;100.00
15477;BME280;7840;42.702;23.296;2022-11-15T08:57:48;95487.50;;;5.60;100.00
15477;BME280;7840;42.702;23.296;2022-11-15T09:55:35;95439.66;;;7.91;100.00
15477;BME280;7840;42.702;23.296;2022-11-15T09:58:15;95443.81;;;7.80;100.00
15477;BME280;7840;42.702;23.296;2022-11-15T10:01:12;95433.69;;;7.95;100.00
15477;BME280;7840;42.702;23.296;2022-11-15T10:03:44;95427.47;;;8.08;100.00
15477;BME280;7840;42.702;23.296;2022-11-15T10:06:21;95424.22;;;8.25;100.00
15477;BME280;7840;42.702;23.296;2022-11-15T10:08:58;95426.09;;;8.54;100.00
15477;BME280;7840;42.702;23.296;2022-11-15T10:11:31;95415.91;;;8.69;100.00
15477;BME280;7840;42.702;23.296;2022-11-15T10:14:11;95424.16;;;8.61;100.00
15477;BME280;7840;42.702;23.296;2022-11-15T10:20:14;95414.94;;;9.05;100.00
15477;BME280;7840;42.702;23.296;2022-11-15T10:22:49;95410.72;;;9.16;100.00
15477;BME280;7840;42.702;23.296;2022-11-15T10:27:56;95405.06;;;9.59;99.41
15477;BME280;7840;42.702;23.296;2022-11-15T10:30:30;95403.75;;;9.85;97.53
15477;BME280;7840;42.702;23.296;2022-11-15T10:32:58;95393.03;;;10.04;96.03
15477;BME280;7840;42.702;23.296;2022-11-15T10:35:35;95385.13;;;10.21;94.10
15477;BME280;7840;42.702;23.296;2022-11-15T10:38:09;95382.47;;;10.32;92.33
15477;BME280;7840;42.702;23.296;2022-11-15T10:41:07;95375.50;;;10.72;91.06
15477;BME280;7840;42.702;23.296;2022-11-15T10:43:39;95374.91;;;11.03;88.06
15477;BME280;7840;42.702;23.296;2022-11-15T10:46:32;95365.94;;;11.21;85.06
15477;BME280;7840;42.702;23.296;2022-11-15T10:49:13;95358.47;;;10.84;85.81
15477;BME280;7840;42.702;23.296;2022-11-15T10:51:44;95361.13;;;10.84;86.65
15477;BME280;7840;42.702;23.296;2022-11-15T10:54:13;95354.47;;;10.99;86.18
15477;BME280;7840;42.702;23.296;2022-11-15T10:56:43;95353.13;;;11.18;85.15
15477;BME280;7840;42.702;23.296;2022-11-15T10:59:23;95346.94;;;11.29;83.77
15477;BME280;7840;42.702;23.296;2022-11-15T11:01:51;95346.94;;;11.29;83.39
15477;BME280;7840;42.702;23.296;2022-11-15T11:04:19;95346.19;;;11.50;81.38
15477;BME280;7840;42.702;23.296;2022-11-15T11:06:48;95334.03;;;11.55;80.51
15477;BME280;7840;42.702;23.296;2022-11-15T11:09:28;95337.31;;;11.62;79.98
15477;BME280;7840;42.702;23.296;2022-11-15T11:11:59;95342.44;;;11.68;79.45
15477;BME280;7840;42.702;23.296;2022-11-15T11:14:42;95333.06;;;12.04;77.86
15477;BME280;7840;42.702;23.296;2022-11-15T11:17:16;95332.78;;;12.28;75.76
15477;BME280;7840;42.702;23.296;2022-11-15T11:19:59;95324.91;;;12.11;74.76
15477;BME280;7840;42.702;23.296;2022-11-15T11:22:53;95317.28;;;12.20;74.81
15477;BME280;7840;42.702;23.296;2022-11-15T11:25:43;95310.09;;;12.42;73.35
15477;BME280;7840;42.702;23.296;2022-11-15T11:28:26;95306.97;;;12.50;73.38
15477;BME280;7840;42.702;23.296;2022-11-15T11:31:08;95302.31;;;12.68;71.90
15477;BME280;7840;42.702;23.296;2022-11-15T11:33:41;95303.44;;;12.72;71.90
15477;BME280;7840;42.702;23.296;2022-11-15T11:36:21;95297.13;;;12.51;72.34
15477;BME280;7840;42.702;23.296;2022-11-15T11:39:00;95285.19;;;12.53;73.15
15477;BME280;7840;42.702;23.296;2022-11-15T11:41:46;95272.66;;;12.49;72.44
15477;BME280;7840;42.702;23.296;2022-11-15T11:44:23;95274.69;;;11.00;77.57
15477;BME280;7840;42.702;23.296;2022-11-15T11:46:57;95270.88;;;10.12;87.02
15477;BME280;7840;42.702;23.296;2022-11-15T11:49:32;95269.31;;;9.82;91.57
15477;BME280;7840;42.702;23.296;2022-11-15T11:52:09;95255.09;;;9.31;96.52
15477;BME280;7840;42.702;23.296;2022-11-15T11:54:44;95259.81;;;9.70;97.03
15477;BME280;7840;42.702;23.296;2022-11-15T11:57:19;95250.25;;;10.43;93.17
15477;BME280;7840;42.702;23.296;2022-11-15T11:59:53;95245.72;;;10.93;88.13
15477;BME280;7840;42.702;23.296;2022-11-15T12:02:29;95247.66;;;10.81;85.51
15477;BME280;7840;42.702;23.296;2022-11-15T12:05:08;95236.31;;;10.30;89.72
15477;BME280;7840;42.702;23.296;2022-11-15T12:07:40;95238.69;;;10.49;89.42
15477;BME280;7840;42.702;23.296;2022-11-15T12:10:18;95229.16;;;11.25;85.90
15477;BME280;7840;42.702;23.296;2022-11-15T12:12:54;95224.53;;;11.81;80.11
15477;BME280;7840;42.702;23.296;2022-11-15T12:15:26;95221.19;;;12.23;77.05
15477;BME280;7840;42.702;23.296;2022-11-15T12:18:51;95220.25;;;12.39;74.90
15477;BME280;7840;42.702;23.296;2022-11-15T12:21:24;95209.25;;;12.63;73.59
15477;BME280;7840;42.702;23.296;2022-11-15T12:23:58;95209.94;;;12.85;72.14
15477;BME280;7840;42.702;23.296;2022-11-15T12:26:35;95214.81;;;13.03;71.17
15477;BME280;7840;42.702;23.296;2022-11-15T12:29:09;95200.03;;;13.18;70.16
15477;BME280;7840;42.702;23.296;2022-11-15T12:31:41;95204.88;;;13.31;68.88
15477;BME280;7840;42.702;23.296;2022-11-15T12:34:40;95195.09;;;13.52;67.85
15477;BME280;7840;42.702;23.296;2022-11-15T12:37:32;95187.97;;;13.62;66.93
15477;BME280;7840;42.702;23.296;2022-11-15T12:40:29;95190.06;;;13.55;67.38
15477;BME280;7840;42.702;23.296;2022-11-15T12:45:47;95181.66;;;14.04;65.01
15477;BME280;7840;42.702;23.296;2022-11-15T12:52:09;95182.09;;;13.55;67.83
15477;BME280;7840;42.702;23.296;2022-11-15T12:55:00;95177.09;;;13.84;65.99
15477;BME280;7840;42.702;23.296;2022-11-15T12:57:34;95185.19;;;12.37;71.11
15477;BME280;7840;42.702;23.296;2022-11-15T13:03:20;95175.31;;;13.22;70.23
15477;BME280;7840;42.702;23.296;2022-11-15T13:05:59;95160.78;;;13.55;68.35
15477;BME280;7840;42.702;23.296;2022-11-15T13:08:56;95158.19;;;13.86;66.83
15477;BME280;7840;42.702;23.296;2022-11-15T13:11:49;95160.59;;;13.92;66.34
15477;BME280;7840;42.702;23.296;2022-11-15T13:14:47;95164.63;;;14.00;66.01
15477;BME280;7840;42.702;23.296;2022-11-15T13:17:27;95155.03;;;14.14;65.51
15477;BME280;7840;42.702;23.296;2022-11-15T13:20:20;95159.28;;;14.51;64.35
15477;BME280;7840;42.702;23.296;2022-11-15T13:22:51;95152.84;;;14.83;62.73
15477;BME280;7840;42.702;23.296;2022-11-15T13:28:20;95139.66;;;15.71;59.48
15477;BME280;7840;42.702;23.296;2022-11-15T13:30:55;95138.16;;;15.50;59.18
15477;BME280;7840;42.702;23.296;2022-11-15T13:33:25;95135.84;;;15.82;57.93
15477;BME280;7840;42.702;23.296;2022-11-15T13:36:00;95138.38;;;15.64;58.19
15477;BME280;7840;42.702;23.296;2022-11-15T13:38:41;95138.09;;;15.60;58.57
15477;BME280;7840;42.702;23.296;2022-11-15T13:41:22;95145.03;;;15.66;58.41
15477;BME280;7840;42.702;23.296;2022-11-15T13:43:53;95146.28;;;15.24;60.12
15477;BME280;7840;42.702;23.296;2022-11-15T13:46:23;95135.38;;;15.70;58.43
15477;BME280;7840;42.702;23.296;2022-11-15T13:49:04;95137.94;;;14.71;60.44
15477;BME280;7840;42.702;23.296;2022-11-15T13:51:42;95134.19;;;13.65;65.24
15477;BME280;7840;42.702;23.296;2022-11-15T13:54:17;95137.53;;;12.68;70.88
15477;BME280;7840;42.702;23.296;2022-11-15T13:56:51;95117.69;;;13.48;68.87
15477;BME280;7840;42.702;23.296;2022-11-15T13:59:25;95137.50;;;12.57;71.86
15477;BME280;7840;42.702;23.296;2022-11-15T14:01:55;95134.91;;;11.93;75.33
15477;BME280;7840;42.702;23.296;2022-11-15T14:04:25;95138.78;;;11.27;81.30
15477;BME280;7840;42.702;23.296;2022-11-15T14:07:03;95144.56;;;11.02;85.58
15477;BME280;7840;42.702;23.296;2022-11-15T14:09:36;95133.34;;;10.94;86.07
15477;BME280;7840;42.702;23.296;2022-11-15T14:12:25;95123.94;;;11.31;86.05
15477;BME280;7840;42.702;23.296;2022-11-15T14:15:18;95134.34;;;11.37;83.09
15477;BME280;7840;42.702;23.296;2022-11-15T14:17:46;95132.63;;;10.38;88.78
15477;BME280;7840;42.702;23.296;2022-11-15T14:20:33;95120.50;;;9.92;94.52
15477;BME280;7840;42.702;23.296;2022-11-15T14:32:22;95127.53;;;8.32;100.00
15477;BME280;7840;42.702;23.296;2022-11-15T14:34:55;95125.56;;;8.16;100.00
15477;BME280;7840;42.702;23.296;2022-11-15T14:37:25;95115.25;;;7.91;100.00
15477;BME280;7840;42.702;23.296;2022-11-15T14:39:54;95118.22;;;7.71;100.00
15477;BME280;7840;42.702;23.296;2022-11-15T14:42:22;95123.91;;;7.56;100.00
15477;BME280;7840;42.702;23.296;2022-11-15T14:44:50;95124.13;;;7.43;100.00
15477;BME280;7840;42.702;23.296;2022-11-15T14:47:20;95116.53;;;7.35;100.00
15477;BME280;7840;42.702;23.296;2022-11-15T14:49:48;95120.06;;;7.29;100.00
15477;BME280;7840;42.702;23.296;2022-11-15T14:52:25;95121.28;;;7.15;100.00
15477;BME280;7840;42.702;23.296;2022-11-15T14:54:53;95118.84;;;7.13;100.00
15477;BME280;7840;42.702;23.296;2022-11-15T14:57:21;95111.81;;;6.95;100.00
15477;BME280;7840;42.702;23.296;2022-11-15T14:59:49;95104.50;;;6.79;100.00
15477;BME280;7840;42.702;23.296;2022-11-15T20:02:02;94993.72;;;4.52;100.00
15477;BME280;7840;42.702;23.296;2022-11-15T20:04:29;94988.88;;;4.56;100.00
15477;BME280;7840;42.702;23.296;2022-11-15T20:06:59;94991.00;;;4.72;100.00
15477;BME280;7840;42.702;23.296;2022-11-15T20:09:28;94999.72;;;4.66;100.00
15477;BME280;7840;42.702;23.296;2022-11-15T20:11:57;94997.50;;;4.63;100.00
15477;BME280;7840;42.702;23.296;2022-11-15T20:14:25;95001.97;;;4.62;100.00
15477;BME280;7840;42.702;23.296;2022-11-15T20:16:54;95004.94;;;4.66;100.00
15477;BME280;7840;42.702;23.296;2022-11-15T20:19:37;95001.66;;;4.77;100.00